Strona główna
METAR-TAF:

METAR-TAF

Lotnisko :

Shawbury, Anglia

Szerokość geograficzna: 52-48N, Długość geograficzna: 002-40W, wysokość: 76 m

Aktualna obserwacja pogody

Raport powstał 30 minut temu, godzina 16:50 UTC
Wiatr 3 kt od zachodnio-południowy zachód
Temperatura 3°C
Wilgotność 93%
Ciśnienie 1015 hPa
Widzialność 10 km lub więcej
Mało chmury na wysokości 1800 ft
Przerywane chmury na wysokości 25000 ft
Płytka mgła

METAR: EGOS 251650Z 24003KT 9999 MIFG FEW018 BKN250 03/02 Q1015 NOSIG RMK BLU BLU

czas: 17:20 (17:20 UTC)

Prognoza

Raport powstał 3 godziny i 45 minut temu, godzina 13:35 UTC
Prognoza ważna od 25 godzina 15 UTC do 25 godzina 18 UTC
Wiatr 8 kt od zachód
Widzialność 10 km lub więcej
Rozproszone chmury na wysokości 4000 ft

TAF: EGOS 251335Z 2515/2518 28008KT 9999 SCT040

Obserwacja i prognoza pogody dla ponad 4000 lotnisk (raport METAR i TAF).

Dostępne stacje oznaczono żółtymi i czerwonymi punktami na mapie.

Najedź kursorem aby zobaczyć nazwę stacji.

Kliknij aby zobaczyć obserwacje i prognozy pogody.

Aby zmienić mapę: kliknij na zielony przycisk z czarnym krzyżykiem, aby powiększyć; na zielony przycisk z myślnikiem, aby pomniejszyć; na zielone strzałki, aby przejść do map sąsiednich.


METAR-TAF: